LFOB/BVA METAR and TAF weather

Enter ICAO airport designator
Station Type Date Time Source
LFOB METAR 2022/01/19 20:00 UTC NOAA

LFOB 192000Z AUTO 30007KT 6000 -RA FEW008/// BKN023/// OVC032/// ///TCU 07/06 Q1027 BECMG SCT020


Station Type Date Time Source
LFOB Decoded METAR 2022/01/19 20:00 UTC NOAA

Beauvais, France (LFOB) 49-28N 002-07E 111M
Jan 19, 2022 - 03:00 PM EST / 2022.01.19 2000 UTC
Wind: from the WNW (300 degrees) at 8 MPH (7 KT):0
Visibility: 3 mile(s):0
Sky conditions: overcast
Weather: light rain; Towering cumulus clouds observed
Temperature: 44 F (7 C)
Dew Point: 42 F (6 C)
Relative Humidity: 93%
Pressure (altimeter): 30.33 in. Hg (1027 hPa)
ob: LFOB 192000Z AUTO 30007KT 6000 -RA FEW008/// BKN023/// OVC032/// ///TCU 07/06 Q1027 BECMG SCT020
cycle: 20

Station Type Date Time Source
LFOB TAF 2022/01/19 18:42 UTC NOAA

TAF TAF LFOB 191700Z 1918/2018 25010KT 7000 OVC022
TEMPO 1918/1920 2000 DZRA OVC004
BECMG 1920/1922 34005KT SCT020
TEMPO 2000/2008 1500 BR

Example: see airport list